sensor_id;sensor_type;location;lat;lon;timestamp;pressure;altitude;pressure_sealevel;temperature;humidity
35655;BME280;21773;50.010;19.972;2022-07-12T00:01:13;99042.50;;;20.43;51.35
35655;BME280;21773;50.010;19.972;2022-07-12T00:04:17;99038.63;;;20.49;51.54
35655;BME280;21773;50.010;19.972;2022-07-12T00:07:21;99038.59;;;20.54;51.55
35655;BME280;21773;50.010;19.972;2022-07-12T00:10:25;99035.31;;;20.57;51.49
35655;BME280;21773;50.010;19.972;2022-07-12T00:13:29;99031.19;;;20.60;51.58
35655;BME280;21773;50.010;19.972;2022-07-12T00:16:32;99038.53;;;20.64;51.46
35655;BME280;21773;50.010;19.972;2022-07-12T00:19:37;99044.25;;;20.68;51.58
35655;BME280;21773;50.010;19.972;2022-07-12T00:22:40;99039.38;;;20.65;51.55
35655;BME280;21773;50.010;19.972;2022-07-12T00:25:44;99045.94;;;20.64;51.73
35655;BME280;21773;50.010;19.972;2022-07-12T00:28:48;99050.34;;;20.60;51.85
35655;BME280;21773;50.010;19.972;2022-07-12T00:31:51;99047.06;;;20.58;52.50
35655;BME280;21773;50.010;19.972;2022-07-12T00:34:56;99052.53;;;20.58;52.18
35655;BME280;21773;50.010;19.972;2022-07-12T00:38:00;99049.50;;;20.64;52.08
35655;BME280;21773;50.010;19.972;2022-07-12T00:41:03;99046.47;;;20.71;52.16
35655;BME280;21773;50.010;19.972;2022-07-12T00:44:07;99050.00;;;20.77;52.14
35655;BME280;21773;50.010;19.972;2022-07-12T00:47:28;99056.53;;;20.81;51.99
35655;BME280;21773;50.010;19.972;2022-07-12T00:50:33;99047.72;;;20.84;51.68
35655;BME280;21773;50.010;19.972;2022-07-12T00:53:37;99050.72;;;20.87;51.90
35655;BME280;21773;50.010;19.972;2022-07-12T00:56:40;99050.44;;;20.89;51.93
35655;BME280;21773;50.010;19.972;2022-07-12T00:59:43;99058.94;;;20.87;51.69
35655;BME280;21773;50.010;19.972;2022-07-12T01:02:47;99052.91;;;20.90;51.59
35655;BME280;21773;50.010;19.972;2022-07-12T01:05:53;99060.03;;;20.91;51.88
35655;BME280;21773;50.010;19.972;2022-07-12T01:08:57;99062.47;;;20.93;51.87
35655;BME280;21773;50.010;19.972;2022-07-12T01:12:01;99058.91;;;20.92;51.75
35655;BME280;21773;50.010;19.972;2022-07-12T01:15:08;99062.44;;;20.98;51.96
35655;BME280;21773;50.010;19.972;2022-07-12T01:18:12;99047.38;;;20.95;52.21
35655;BME280;21773;50.010;19.972;2022-07-12T01:21:22;99057.19;;;21.01;52.24
35655;BME280;21773;50.010;19.972;2022-07-12T01:24:27;99049.50;;;21.03;51.92
35655;BME280;21773;50.010;19.972;2022-07-12T01:27:30;99056.06;;;21.07;51.99
35655;BME280;21773;50.010;19.972;2022-07-12T01:30:35;99048.88;;;21.11;51.75
35655;BME280;21773;50.010;19.972;2022-07-12T01:33:42;99051.94;;;21.15;52.02
35655;BME280;21773;50.010;19.972;2022-07-12T01:36:46;99042.31;;;21.12;51.53
35655;BME280;21773;50.010;19.972;2022-07-12T01:39:54;99034.13;;;21.07;51.62
35655;BME280;21773;50.010;19.972;2022-07-12T01:42:57;99040.97;;;21.15;51.86
35655;BME280;21773;50.010;19.972;2022-07-12T01:46:02;99034.91;;;21.13;51.49
35655;BME280;21773;50.010;19.972;2022-07-12T01:49:05;99025.03;;;21.12;51.77
35655;BME280;21773;50.010;19.972;2022-07-12T01:52:09;99043.97;;;21.13;51.61
35655;BME280;21773;50.010;19.972;2022-07-12T01:55:13;99037.41;;;21.14;51.68
35655;BME280;21773;50.010;19.972;2022-07-12T01:58:17;99037.91;;;21.16;52.02
35655;BME280;21773;50.010;19.972;2022-07-12T02:01:20;99035.16;;;21.16;52.17
35655;BME280;21773;50.010;19.972;2022-07-12T02:04:24;99038.22;;;21.15;52.01
35655;BME280;21773;50.010;19.972;2022-07-12T02:07:28;99039.84;;;21.16;51.95
35655;BME280;21773;50.010;19.972;2022-07-12T02:10:33;99035.47;;;21.15;52.40
35655;BME280;21773;50.010;19.972;2022-07-12T02:13:36;99029.69;;;21.11;52.42
35655;BME280;21773;50.010;19.972;2022-07-12T02:16:41;99020.44;;;21.02;52.29
35655;BME280;21773;50.010;19.972;2022-07-12T02:19:44;99019.13;;;21.00;52.27
35655;BME280;21773;50.010;19.972;2022-07-12T02:22:48;99045.00;;;21.23;52.37
35655;BME280;21773;50.010;19.972;2022-07-12T02:25:53;99040.34;;;21.23;52.16
35655;BME280;21773;50.010;19.972;2022-07-12T02:28:57;99043.91;;;21.24;52.31
35655;BME280;21773;50.010;19.972;2022-07-12T02:32:00;99040.91;;;21.20;52.22
35655;BME280;21773;50.010;19.972;2022-07-12T02:35:05;99045.84;;;21.18;52.59
35655;BME280;21773;50.010;19.972;2022-07-12T02:38:08;99038.44;;;21.18;52.14
35655;BME280;21773;50.010;19.972;2022-07-12T02:41:13;99038.41;;;21.24;52.05
35655;BME280;21773;50.010;19.972;2022-07-12T02:44:16;99036.22;;;21.26;52.15
35655;BME280;21773;50.010;19.972;2022-07-12T02:47:19;99046.88;;;21.27;51.95
35655;BME280;21773;50.010;19.972;2022-07-12T02:50:23;99051.25;;;21.28;51.87
35655;BME280;21773;50.010;19.972;2022-07-12T02:53:26;99046.59;;;21.29;52.17
35655;BME280;21773;50.010;19.972;2022-07-12T02:56:31;99050.16;;;21.29;52.30
35655;BME280;21773;50.010;19.972;2022-07-12T02:59:35;99048.22;;;21.30;52.21
35655;BME280;21773;50.010;19.972;2022-07-12T03:02:38;99049.84;;;21.31;52.06
35655;BME280;21773;50.010;19.972;2022-07-12T03:05:42;99047.41;;;21.29;52.00
35655;BME280;21773;50.010;19.972;2022-07-12T03:08:46;99044.66;;;21.29;52.29
35655;BME280;21773;50.010;19.972;2022-07-12T03:11:51;99047.09;;;21.31;52.36
35655;BME280;21773;50.010;19.972;2022-07-12T03:14:54;99047.09;;;21.31;52.31
35655;BME280;21773;50.010;19.972;2022-07-12T03:17:58;99044.38;;;21.31;52.25
35655;BME280;21773;50.010;19.972;2022-07-12T03:21:01;99053.72;;;21.30;51.90
35655;BME280;21773;50.010;19.972;2022-07-12T03:24:05;99050.66;;;21.31;52.09
35655;BME280;21773;50.010;19.972;2022-07-12T03:27:10;99059.16;;;21.35;52.21
35655;BME280;21773;50.010;19.972;2022-07-12T03:30:13;99036.53;;;21.19;51.96
35655;BME280;21773;50.010;19.972;2022-07-12T03:33:19;99064.34;;;21.36;52.05
35655;BME280;21773;50.010;19.972;2022-07-12T03:36:23;99061.03;;;21.39;51.83
35655;BME280;21773;50.010;19.972;2022-07-12T03:39:26;99064.84;;;21.43;51.81
35655;BME280;21773;50.010;19.972;2022-07-12T03:42:37;99070.28;;;21.48;51.26
35655;BME280;21773;50.010;19.972;2022-07-12T03:45:40;99072.44;;;21.51;51.37
35655;BME280;21773;50.010;19.972;2022-07-12T03:48:45;99065.56;;;21.54;51.36
35655;BME280;21773;50.010;19.972;2022-07-12T03:51:51;99063.34;;;21.56;51.33
35655;BME280;21773;50.010;19.972;2022-07-12T03:54:54;99064.97;;;21.57;51.52
35655;BME280;21773;50.010;19.972;2022-07-12T03:57:59;99057.28;;;21.59;51.28
35655;BME280;21773;50.010;19.972;2022-07-12T04:01:02;99049.88;;;21.59;51.38
35655;BME280;21773;50.010;19.972;2022-07-12T04:04:06;99012.50;;;21.40;51.30
35655;BME280;21773;50.010;19.972;2022-07-12T04:07:09;99050.34;;;21.67;51.66
35655;BME280;21773;50.010;19.972;2022-07-12T04:10:12;99047.03;;;21.70;51.40
35655;BME280;21773;50.010;19.972;2022-07-12T04:13:18;99048.69;;;21.66;51.67
35655;BME280;21773;50.010;19.972;2022-07-12T04:16:21;99049.25;;;21.68;51.53
35655;BME280;21773;50.010;19.972;2022-07-12T04:19:25;99029.59;;;21.55;51.39
35655;BME280;21773;50.010;19.972;2022-07-12T04:22:29;99050.00;;;21.73;51.59
35655;BME280;21773;50.010;19.972;2022-07-12T04:25:33;99050.22;;;21.77;51.73
35655;BME280;21773;50.010;19.972;2022-07-12T04:28:37;99049.38;;;21.81;51.73
35655;BME280;21773;50.010;19.972;2022-07-12T04:31:41;99026.47;;;21.67;51.89
35655;BME280;21773;50.010;19.972;2022-07-12T04:34:44;99048.72;;;21.89;51.96
35655;BME280;21773;50.010;19.972;2022-07-12T04:37:49;99050.66;;;21.94;51.32
35655;BME280;21773;50.010;19.972;2022-07-12T04:40:52;99049.22;;;21.96;51.30
35655;BME280;21773;50.010;19.972;2022-07-12T04:43:57;99056.81;;;22.04;51.33
35655;BME280;21773;50.010;19.972;2022-07-12T04:47:01;99049.09;;;22.07;51.11
35655;BME280;21773;50.010;19.972;2022-07-12T04:50:05;99047.41;;;22.11;51.12
35655;BME280;21773;50.010;19.972;2022-07-12T04:53:09;99053.38;;;22.18;50.87
35655;BME280;21773;50.010;19.972;2022-07-12T04:56:12;99062.38;;;22.23;51.09
35655;BME280;21773;50.010;19.972;2022-07-12T04:59:17;99050.78;;;22.26;50.94
35655;BME280;21773;50.010;19.972;2022-07-12T05:02:21;99059.19;;;22.35;51.36
35655;BME280;21773;50.010;19.972;2022-07-12T05:05:24;99055.28;;;22.41;51.17
35655;BME280;21773;50.010;19.972;2022-07-12T05:08:27;99055.00;;;22.42;50.68
35655;BME280;21773;50.010;19.972;2022-07-12T05:11:31;99049.72;;;22.46;50.18
35655;BME280;21773;50.010;19.972;2022-07-12T05:14:37;99044.38;;;22.55;50.37
35655;BME280;21773;50.010;19.972;2022-07-12T05:17:41;99041.25;;;22.61;49.94
35655;BME280;21773;50.010;19.972;2022-07-12T05:20:44;99026.34;;;22.67;49.26
35655;BME280;21773;50.010;19.972;2022-07-12T05:23:52;99045.16;;;22.79;49.66
35655;BME280;21773;50.010;19.972;2022-07-12T05:26:56;99040.31;;;22.89;48.48
35655;BME280;21773;50.010;19.972;2022-07-12T05:30:00;99036.59;;;22.99;48.52
35655;BME280;21773;50.010;19.972;2022-07-12T05:33:04;99045.41;;;23.15;47.19
35655;BME280;21773;50.010;19.972;2022-07-12T05:36:10;99037.50;;;23.27;48.03
35655;BME280;21773;50.010;19.972;2022-07-12T05:39:13;99035.09;;;23.39;48.10
35655;BME280;21773;50.010;19.972;2022-07-12T05:42:17;99043.41;;;23.53;47.70
35655;BME280;21773;50.010;19.972;2022-07-12T05:45:22;99039.13;;;23.60;46.86
35655;BME280;21773;50.010;19.972;2022-07-12T05:48:25;99046.19;;;23.66;46.86
35655;BME280;21773;50.010;19.972;2022-07-12T05:51:29;99042.53;;;23.71;46.69
35655;BME280;21773;50.010;19.972;2022-07-12T05:54:50;99042.13;;;23.78;46.56
35655;BME280;21773;50.010;19.972;2022-07-12T05:57:53;99042.84;;;23.83;46.41
35655;BME280;21773;50.010;19.972;2022-07-12T06:00:58;99045.81;;;23.87;45.99
35655;BME280;21773;50.010;19.972;2022-07-12T06:04:01;99045.19;;;23.90;45.42
35655;BME280;21773;50.010;19.972;2022-07-12T06:07:05;99044.78;;;23.96;45.48
35655;BME280;21773;50.010;19.972;2022-07-12T06:10:09;99042.75;;;24.02;45.94
35655;BME280;21773;50.010;19.972;2022-07-12T06:13:14;99038.69;;;24.13;45.95
35655;BME280;21773;50.010;19.972;2022-07-12T06:16:19;99045.03;;;24.27;45.92
35655;BME280;21773;50.010;19.972;2022-07-12T06:19:22;99052.97;;;24.42;45.34
35655;BME280;21773;50.010;19.972;2022-07-12T06:22:27;99046.63;;;24.55;44.49
35655;BME280;21773;50.010;19.972;2022-07-12T06:25:30;99038.13;;;24.66;44.33
35655;BME280;21773;50.010;19.972;2022-07-12T06:28:44;99046.47;;;24.74;43.39
35655;BME280;21773;50.010;19.972;2022-07-12T06:31:49;99036.44;;;24.78;42.82
35655;BME280;21773;50.010;19.972;2022-07-12T06:34:52;99046.44;;;24.88;42.94
35655;BME280;21773;50.010;19.972;2022-07-12T06:37:56;99037.75;;;24.94;43.33
35655;BME280;21773;50.010;19.972;2022-07-12T06:40:59;99035.06;;;25.03;43.18
35655;BME280;21773;50.010;19.972;2022-07-12T06:44:03;99047.78;;;25.13;42.95
35655;BME280;21773;50.010;19.972;2022-07-12T06:47:08;99044.22;;;25.12;41.82
35655;BME280;21773;50.010;19.972;2022-07-12T06:50:12;99045.53;;;25.15;42.08
35655;BME280;21773;50.010;19.972;2022-07-12T06:53:16;99058.53;;;25.14;41.99
35655;BME280;21773;50.010;19.972;2022-07-12T06:56:20;99050.25;;;25.14;42.36
35655;BME280;21773;50.010;19.972;2022-07-12T06:59:23;99051.56;;;25.17;42.49
35655;BME280;21773;50.010;19.972;2022-07-12T07:02:30;99061.16;;;25.19;42.62
35655;BME280;21773;50.010;19.972;2022-07-12T07:05:34;99054.19;;;25.22;42.64
35655;BME280;21773;50.010;19.972;2022-07-12T07:08:38;99055.50;;;25.24;42.39
35655;BME280;21773;50.010;19.972;2022-07-12T07:11:41;99049.34;;;25.27;42.95
35655;BME280;21773;50.010;19.972;2022-07-12T07:14:45;99059.44;;;25.32;42.44
35655;BME280;21773;50.010;19.972;2022-07-12T07:17:49;99058.31;;;25.33;41.93
35655;BME280;21773;50.010;19.972;2022-07-12T07:20:54;99066.59;;;25.33;42.19
35655;BME280;21773;50.010;19.972;2022-07-12T07:23:57;99059.78;;;25.30;42.27
35655;BME280;21773;50.010;19.972;2022-07-12T07:27:01;99059.78;;;25.30;42.42
35655;BME280;21773;50.010;19.972;2022-07-12T07:30:05;99067.56;;;25.28;42.42
35655;BME280;21773;50.010;19.972;2022-07-12T07:33:28;99060.09;;;25.29;42.44
35655;BME280;21773;50.010;19.972;2022-07-12T07:36:31;99070.50;;;25.32;42.74
35655;BME280;21773;50.010;19.972;2022-07-12T07:39:35;99067.13;;;25.35;42.42
35655;BME280;21773;50.010;19.972;2022-07-12T07:42:38;99061.78;;;25.38;42.09
35655;BME280;21773;50.010;19.972;2022-07-12T07:45:41;99070.75;;;25.44;42.10
35655;BME280;21773;50.010;19.972;2022-07-12T07:48:47;99071.91;;;25.52;42.03
35655;BME280;21773;50.010;19.972;2022-07-12T07:51:50;99071.22;;;25.60;41.48
35655;BME280;21773;50.010;19.972;2022-07-12T07:54:56;99078.22;;;25.66;41.18
35655;BME280;21773;50.010;19.972;2022-07-12T07:58:00;99069.47;;;25.72;41.21
35655;BME280;21773;50.010;19.972;2022-07-12T08:01:04;99070.34;;;25.81;41.20
35655;BME280;21773;50.010;19.972;2022-07-12T08:04:09;99068.94;;;25.93;41.47
35655;BME280;21773;50.010;19.972;2022-07-12T08:07:12;99065.94;;;26.11;41.07
35655;BME280;21773;50.010;19.972;2022-07-12T08:10:36;99060.50;;;26.28;40.43
35655;BME280;21773;50.010;19.972;2022-07-12T08:13:39;99066.75;;;26.51;39.24
35655;BME280;21773;50.010;19.972;2022-07-12T08:16:43;99070.84;;;26.71;39.23
35655;BME280;21773;50.010;19.972;2022-07-12T08:19:48;99073.84;;;26.92;38.85
35655;BME280;21773;50.010;19.972;2022-07-12T08:22:51;99072.84;;;27.05;38.99
35655;BME280;21773;50.010;19.972;2022-07-12T08:25:54;99071.38;;;27.07;38.11
35655;BME280;21773;50.010;19.972;2022-07-12T08:28:58;99079.50;;;27.12;38.31
35655;BME280;21773;50.010;19.972;2022-07-12T08:32:01;99081.16;;;27.13;38.54
35655;BME280;21773;50.010;19.972;2022-07-12T08:35:07;99080.81;;;27.15;38.23
35655;BME280;21773;50.010;19.972;2022-07-12T08:38:10;99064.72;;;27.26;37.82
35655;BME280;21773;50.010;19.972;2022-07-12T08:41:14;99058.34;;;27.34;37.29
35655;BME280;21773;50.010;19.972;2022-07-12T08:44:18;99046.78;;;27.49;37.46
35655;BME280;21773;50.010;19.972;2022-07-12T08:47:21;99050.47;;;27.62;36.26
35655;BME280;21773;50.010;19.972;2022-07-12T08:50:26;99057.16;;;27.69;36.03
35655;BME280;21773;50.010;19.972;2022-07-12T08:53:29;99037.56;;;27.83;36.30
35655;BME280;21773;50.010;19.972;2022-07-12T08:56:34;99043.88;;;27.92;35.00
35655;BME280;21773;50.010;19.972;2022-07-12T08:59:39;99040.63;;;27.90;35.48
35655;BME280;21773;50.010;19.972;2022-07-12T09:02:45;99043.59;;;27.85;35.50
35655;BME280;21773;50.010;19.972;2022-07-12T09:05:52;99045.19;;;27.94;35.71
35655;BME280;21773;50.010;19.972;2022-07-12T09:08:56;99025.41;;;28.05;35.54
35655;BME280;21773;50.010;19.972;2022-07-12T09:12:00;99038.31;;;28.38;34.89
35655;BME280;21773;50.010;19.972;2022-07-12T09:15:16;99048.00;;;28.53;33.95
35655;BME280;21773;50.010;19.972;2022-07-12T09:18:22;99053.94;;;28.64;33.36
35655;BME280;21773;50.010;19.972;2022-07-12T09:21:31;99056.19;;;28.70;33.92
35655;BME280;21773;50.010;19.972;2022-07-12T09:24:35;99061.13;;;28.73;34.30
35655;BME280;21773;50.010;19.972;2022-07-12T09:27:38;99063.03;;;28.81;34.24
35655;BME280;21773;50.010;19.972;2022-07-12T09:30:50;99060.63;;;28.71;35.67
35655;BME280;21773;50.010;19.972;2022-07-12T09:34:01;99091.53;;;28.61;36.27
35655;BME280;21773;50.010;19.972;2022-07-12T09:37:25;99108.66;;;28.25;37.79
35655;BME280;21773;50.010;19.972;2022-07-12T09:40:28;99115.78;;;27.88;38.22
35655;BME280;21773;50.010;19.972;2022-07-12T09:43:32;99120.06;;;27.51;37.54
35655;BME280;21773;50.010;19.972;2022-07-12T09:46:37;99108.19;;;27.17;38.11
35655;BME280;21773;50.010;19.972;2022-07-12T09:49:41;99096.13;;;26.87;39.12
35655;BME280;21773;50.010;19.972;2022-07-12T09:52:48;99091.78;;;26.55;39.66
35655;BME280;21773;50.010;19.972;2022-07-12T09:55:54;99088.34;;;26.41;40.54
35655;BME280;21773;50.010;19.972;2022-07-12T09:59:01;99089.75;;;26.29;41.30
35655;BME280;21773;50.010;19.972;2022-07-12T10:02:06;99090.09;;;26.28;41.94
35655;BME280;21773;50.010;19.972;2022-07-12T10:05:12;99073.97;;;26.30;42.29
35655;BME280;21773;50.010;19.972;2022-07-12T10:08:19;99079.06;;;26.45;42.29
35655;BME280;21773;50.010;19.972;2022-07-12T10:11:24;99082.72;;;26.63;42.41
35655;BME280;21773;50.010;19.972;2022-07-12T10:14:48;99072.63;;;26.84;41.94
35655;BME280;21773;50.010;19.972;2022-07-12T10:17:55;99069.41;;;27.08;42.24
35655;BME280;21773;50.010;19.972;2022-07-12T10:21:17;99065.34;;;27.31;40.96
35655;BME280;21773;50.010;19.972;2022-07-12T10:24:51;99066.00;;;27.45;40.83
35655;BME280;21773;50.010;19.972;2022-07-12T10:27:59;99053.78;;;27.55;40.66
35655;BME280;21773;50.010;19.972;2022-07-12T10:31:04;99065.97;;;27.63;40.31
35655;BME280;21773;50.010;19.972;2022-07-12T10:34:19;99052.75;;;27.68;40.24
35655;BME280;21773;50.010;19.972;2022-07-12T10:37:23;99052.72;;;27.77;40.03
35655;BME280;21773;50.010;19.972;2022-07-12T10:40:33;99058.88;;;27.91;39.98
35655;BME280;21773;50.010;19.972;2022-07-12T10:43:37;99039.41;;;28.08;38.67
35655;BME280;21773;50.010;19.972;2022-07-12T10:46:59;99041.53;;;28.20;37.34
35655;BME280;21773;50.010;19.972;2022-07-12T10:50:03;99036.75;;;28.20;36.68
35655;BME280;21773;50.010;19.972;2022-07-12T10:53:23;99037.44;;;28.47;37.68
35655;BME280;21773;50.010;19.972;2022-07-12T10:56:35;99034.13;;;28.53;36.11
35655;BME280;21773;50.010;19.972;2022-07-12T10:59:41;99031.50;;;28.57;35.94
35655;BME280;21773;50.010;19.972;2022-07-12T11:02:47;99037.78;;;28.66;36.04
35655;BME280;21773;50.010;19.972;2022-07-12T11:05:50;99032.00;;;28.79;37.37
35655;BME280;21773;50.010;19.972;2022-07-12T11:08:56;99028.50;;;28.91;34.84
35655;BME280;21773;50.010;19.972;2022-07-12T11:12:03;99032.69;;;28.97;34.59
35655;BME280;21773;50.010;19.972;2022-07-12T11:15:10;99039.78;;;29.07;34.85
35655;BME280;21773;50.010;19.972;2022-07-12T11:18:27;99038.22;;;29.18;35.41
35655;BME280;21773;50.010;19.972;2022-07-12T11:21:31;99035.72;;;29.25;34.50
35655;BME280;21773;50.010;19.972;2022-07-12T11:24:35;99040.13;;;29.26;33.81
35655;BME280;21773;50.010;19.972;2022-07-12T11:27:40;99025.22;;;29.31;33.62
35655;BME280;21773;50.010;19.972;2022-07-12T11:30:48;99021.88;;;29.37;33.66
35655;BME280;21773;50.010;19.972;2022-07-12T11:33:52;99020.88;;;29.42;33.27
35655;BME280;21773;50.010;19.972;2022-07-12T11:36:56;99011.03;;;29.44;32.98
35655;BME280;21773;50.010;19.972;2022-07-12T11:39:59;99020.72;;;29.38;33.49
35655;BME280;21773;50.010;19.972;2022-07-12T11:43:04;99010.22;;;29.44;33.70
35655;BME280;21773;50.010;19.972;2022-07-12T11:46:08;99014.41;;;29.50;33.37
35655;BME280;21773;50.010;19.972;2022-07-12T11:49:14;99002.16;;;29.63;33.34
35655;BME280;21773;50.010;19.972;2022-07-12T11:52:18;99002.88;;;29.72;34.03
35655;BME280;21773;50.010;19.972;2022-07-12T11:55:22;99005.31;;;29.74;32.47
35655;BME280;21773;50.010;19.972;2022-07-12T11:58:28;99001.13;;;29.67;32.61
35655;BME280;21773;50.010;19.972;2022-07-12T12:01:34;99017.56;;;29.60;32.01
35655;BME280;21773;50.010;19.972;2022-07-12T12:04:45;99018.81;;;29.51;32.18
35655;BME280;21773;50.010;19.972;2022-07-12T12:07:49;99019.47;;;29.48;32.07
35655;BME280;21773;50.010;19.972;2022-07-12T12:10:57;99007.81;;;29.54;32.41
35655;BME280;21773;50.010;19.972;2022-07-12T12:14:04;99002.53;;;29.61;32.25
35655;BME280;21773;50.010;19.972;2022-07-12T12:17:13;98995.56;;;29.67;31.48
35655;BME280;21773;50.010;19.972;2022-07-12T12:20:18;98999.88;;;29.77;32.36
35655;BME280;21773;50.010;19.972;2022-07-12T12:23:22;98994.06;;;29.82;31.81
35655;BME280;21773;50.010;19.972;2022-07-12T12:26:30;98995.13;;;29.78;31.34
35655;BME280;21773;50.010;19.972;2022-07-12T12:29:41;98988.63;;;29.74;31.31
35655;BME280;21773;50.010;19.972;2022-07-12T12:32:52;98998.94;;;29.73;31.85
35655;BME280;21773;50.010;19.972;2022-07-12T12:36:11;98995.34;;;29.73;31.45
35655;BME280;21773;50.010;19.972;2022-07-12T12:39:29;98996.19;;;29.85;31.40
35655;BME280;21773;50.010;19.972;2022-07-12T12:42:32;98990.25;;;29.87;31.86
35655;BME280;21773;50.010;19.972;2022-07-12T12:45:48;98984.06;;;29.90;31.56
35655;BME280;21773;50.010;19.972;2022-07-12T12:48:52;98985.50;;;29.87;30.75
35655;BME280;21773;50.010;19.972;2022-07-12T12:51:57;98987.97;;;29.89;31.76
35655;BME280;21773;50.010;19.972;2022-07-12T12:55:01;98980.53;;;29.81;31.28
35655;BME280;21773;50.010;19.972;2022-07-12T12:58:04;98965.44;;;29.57;32.04
35655;BME280;21773;50.010;19.972;2022-07-12T13:01:09;98995.22;;;29.81;32.17
35655;BME280;21773;50.010;19.972;2022-07-12T13:04:13;99006.34;;;29.81;32.18
35655;BME280;21773;50.010;19.972;2022-07-12T13:07:17;99023.25;;;29.64;32.31
35655;BME280;21773;50.010;19.972;2022-07-12T13:10:20;99015.19;;;29.38;33.66
35655;BME280;21773;50.010;19.972;2022-07-12T13:13:23;99041.59;;;29.23;34.58
35655;BME280;21773;50.010;19.972;2022-07-12T13:16:28;99033.84;;;28.96;35.70
35655;BME280;21773;50.010;19.972;2022-07-12T13:19:32;99027.34;;;28.71;35.89
35655;BME280;21773;50.010;19.972;2022-07-12T13:22:35;99020.72;;;28.55;35.92
35655;BME280;21773;50.010;19.972;2022-07-12T13:25:39;99031.13;;;28.37;36.58
35655;BME280;21773;50.010;19.972;2022-07-12T13:28:42;99018.66;;;28.23;36.43
35655;BME280;21773;50.010;19.972;2022-07-12T13:31:47;99025.06;;;28.06;36.21
35655;BME280;21773;50.010;19.972;2022-07-12T13:34:57;99024.97;;;27.94;37.62
35655;BME280;21773;50.010;19.972;2022-07-12T13:38:02;99015.22;;;27.88;38.08
35655;BME280;21773;50.010;19.972;2022-07-12T13:41:05;99014.72;;;27.86;38.40
35655;BME280;21773;50.010;19.972;2022-07-12T13:44:09;99014.13;;;27.80;38.58
35655;BME280;21773;50.010;19.972;2022-07-12T13:47:24;99011.84;;;27.74;38.73
35655;BME280;21773;50.010;19.972;2022-07-12T13:50:28;99007.94;;;27.66;38.42
35655;BME280;21773;50.010;19.972;2022-07-12T13:53:34;99009.56;;;27.76;39.16
35655;BME280;21773;50.010;19.972;2022-07-12T13:56:37;99019.31;;;27.82;38.45
35655;BME280;21773;50.010;19.972;2022-07-12T13:59:41;99018.31;;;27.86;37.64
35655;BME280;21773;50.010;19.972;2022-07-12T14:02:47;99006.06;;;27.87;38.39
35655;BME280;21773;50.010;19.972;2022-07-12T14:05:56;99000.22;;;27.89;38.09
35655;BME280;21773;50.010;19.972;2022-07-12T14:08:59;98995.94;;;27.91;37.43
35655;BME280;21773;50.010;19.972;2022-07-12T14:12:03;99003.94;;;27.93;36.94
35655;BME280;21773;50.010;19.972;2022-07-12T14:15:08;99007.38;;;27.90;36.67
35655;BME280;21773;50.010;19.972;2022-07-12T14:18:18;99011.31;;;27.89;36.99
35655;BME280;21773;50.010;19.972;2022-07-12T14:21:21;99004.63;;;27.90;37.04
35655;BME280;21773;50.010;19.972;2022-07-12T14:24:25;99004.81;;;27.76;36.92
35655;BME280;21773;50.010;19.972;2022-07-12T14:27:28;99002.41;;;27.75;36.28
35655;BME280;21773;50.010;19.972;2022-07-12T14:30:31;99006.00;;;27.67;36.46
35655;BME280;21773;50.010;19.972;2022-07-12T14:33:37;99010.09;;;27.52;36.08
35655;BME280;21773;50.010;19.972;2022-07-12T14:36:40;99002.94;;;27.42;36.54
35655;BME280;21773;50.010;19.972;2022-07-12T14:39:43;99003.78;;;27.34;36.70
35655;BME280;21773;50.010;19.972;2022-07-12T14:42:47;99003.47;;;27.27;36.81
35655;BME280;21773;50.010;19.972;2022-07-12T14:45:51;98986.69;;;27.24;36.77
35655;BME280;21773;50.010;19.972;2022-07-12T14:48:56;98992.09;;;27.20;36.68
35655;BME280;21773;50.010;19.972;2022-07-12T14:51:59;98993.22;;;27.19;36.77
35655;BME280;21773;50.010;19.972;2022-07-12T14:55:03;98992.56;;;27.22;36.99
35655;BME280;21773;50.010;19.972;2022-07-12T14:58:09;98993.19;;;27.28;37.33
35655;BME280;21773;50.010;19.972;2022-07-12T15:01:13;98992.72;;;27.34;37.62
35655;BME280;21773;50.010;19.972;2022-07-12T15:04:17;98991.41;;;27.40;37.19
35655;BME280;21773;50.010;19.972;2022-07-12T15:07:21;98984.06;;;27.44;36.89
35655;BME280;21773;50.010;19.972;2022-07-12T15:10:24;98983.72;;;27.46;36.96
35655;BME280;21773;50.010;19.972;2022-07-12T15:13:28;98978.66;;;27.48;37.09
35655;BME280;21773;50.010;19.972;2022-07-12T15:16:32;98978.50;;;27.53;36.93
35655;BME280;21773;50.010;19.972;2022-07-12T15:19:37;98981.41;;;27.56;37.60
35655;BME280;21773;50.010;19.972;2022-07-12T15:22:43;98976.38;;;27.58;37.69
35655;BME280;21773;50.010;19.972;2022-07-12T15:25:46;98976.25;;;27.55;37.54
35655;BME280;21773;50.010;19.972;2022-07-12T15:28:56;98979.19;;;27.50;37.83
35655;BME280;21773;50.010;19.972;2022-07-12T15:31:59;98973.47;;;27.46;38.17
35655;BME280;21773;50.010;19.972;2022-07-12T15:35:05;98960.78;;;27.37;37.98
35655;BME280;21773;50.010;19.972;2022-07-12T15:38:09;98963.56;;;27.28;38.64
35655;BME280;21773;50.010;19.972;2022-07-12T15:41:13;98971.41;;;27.17;39.04
35655;BME280;21773;50.010;19.972;2022-07-12T15:44:17;98974.19;;;27.09;39.48
35655;BME280;21773;50.010;19.972;2022-07-12T15:47:21;98965.09;;;27.00;39.56
35655;BME280;21773;50.010;19.972;2022-07-12T15:50:25;98962.34;;;26.91;39.78
35655;BME280;21773;50.010;19.972;2022-07-12T15:53:29;98936.13;;;26.71;40.00
35655;BME280;21773;50.010;19.972;2022-07-12T15:56:32;98962.66;;;26.81;40.33
35655;BME280;21773;50.010;19.972;2022-07-12T15:59:35;98955.97;;;26.73;40.32
35655;BME280;21773;50.010;19.972;2022-07-12T16:02:39;98949.81;;;26.68;40.24
35655;BME280;21773;50.010;19.972;2022-07-12T16:05:44;98951.91;;;26.62;40.72
35655;BME280;21773;50.010;19.972;2022-07-12T16:08:48;98957.13;;;26.55;41.03